Terminal Aerodrome Forecast
Issued by NWS

Home | Current Version | Previous Version | Graphics & Text | Print | Product List | Glossary On
Versions: 1 2 3 4 5 6 7 8 9 10 11 12 13 14 15 16 17 18 19 20 21 22 23 24 25 26
908
FTUS43 KBIS 152337
TAFMOT
TAF
KMOT 152337Z 1600/1624 11006KT P6SM VCSH SCT009 BKN015 OVC025
     FM160500 VRB03KT P6SM OVC015
     FM160800 VRB03KT 4SM BR OVC008
     FM161200 30005KT 2SM BR OVC008
     FM161500 32006KT P6SM BKN110=

USA.gov is the U.S. government's official web portal to all federal, state and local government web resources and services.